Time;durP1;ratioP1;P1;durP2;ratioP2;P2;SDS_P1;SDS_P2;PMS_P1;PMS_P2;Temp;Humidity;BMP_temperature;BMP_pressure;BME280_temperature;BME280_humidity;BME280_pressure;Samples;Min_cycle;Max_cycle;Signal;HPM_P1;HPM_P2
2021/01/13 00:01:16;;;;;;;17.52;8.60;;;0.30;99.90;;;;;;5088693;28;20469;-68
2021/01/13 00:03:43;;;;;;;19.17;9.95;;;0.30;99.90;;;;;;5090952;28;20047;-68
2021/01/13 00:06:15;;;;;;;19.10;9.57;;;0.30;99.90;;;;;;5088883;28;20048;-68
2021/01/13 00:08:41;;;;;;;18.58;9.30;;;0.30;99.90;;;;;;5086778;28;20051;-68
2021/01/13 00:11:08;;;;;;;20.75;9.77;;;0.40;99.90;;;;;;5086838;28;20083;-68
2021/01/13 00:13:35;;;;;;;21.90;11.10;;;0.30;99.90;;;;;;5082384;28;20086;-69
2021/01/13 00:16:01;;;;;;;21.67;9.95;;;0.30;99.90;;;;;;5090725;28;20554;-68
2021/01/13 00:18:28;;;;;;;21.30;9.88;;;0.30;99.90;;;;;;5089427;28;20101;-68
2021/01/13 00:20:55;;;;;;;18.52;9.88;;;0.30;99.90;;;;;;5082716;28;20043;-69
2021/01/13 00:23:21;;;;;;;22.45;10.73;;;0.30;99.90;;;;;;5090022;28;20473;-69
2021/01/13 00:25:48;;;;;;;20.17;10.77;;;0.30;99.90;;;;;;5090311;28;20051;-68
2021/01/13 00:28:14;;;;;;;19.95;10.00;;;0.30;99.90;;;;;;5083381;28;20058;-68
2021/01/13 00:30:41;;;;;;;19.75;9.65;;;0.30;99.90;;;;;;5091037;28;20054;-68
2021/01/13 00:33:07;;;;;;;21.73;10.52;;;0.30;99.90;;;;;;5089726;28;20043;-68
2021/01/13 00:35:34;;;;;;;27.00;10.35;;;0.20;99.90;;;;;;5089810;28;20048;-66
2021/01/13 00:38:00;;;;;;;22.75;10.52;;;0.10;99.90;;;;;;5089515;28;20101;-69
2021/01/13 00:40:27;;;;;;;21.58;9.82;;;0.20;99.90;;;;;;5090466;28;20047;-68
2021/01/13 00:42:54;;;;;;;19.35;10.55;;;0.20;99.90;;;;;;5090613;28;20056;-68
2021/01/13 00:45:21;;;;;;;24.70;10.38;;;0.20;99.90;;;;;;5088940;28;20048;-68
2021/01/13 00:47:51;;;;;;;21.77;10.45;;;0.20;99.90;;;;;;5090176;28;20047;-68
2021/01/13 00:50:18;;;;;;;22.42;10.48;;;0.10;99.90;;;;;;5088213;28;20540;-68
2021/01/13 00:52:46;;;;;;;23.00;10.35;;;0.10;99.90;;;;;;5090039;28;20566;-68
2021/01/13 00:55:13;;;;;;;24.55;10.27;;;0.10;99.90;;;;;;5088496;28;20146;-69
2021/01/13 00:57:39;;;;;;;21.90;10.73;;;0.00;99.90;;;;;;5090664;28;20054;-68
2021/01/13 01:00:10;;;;;;;27.55;10.90;;;0.10;99.90;;;;;;5090646;28;20450;-67
2021/01/13 01:02:37;;;;;;;23.80;11.15;;;0.10;99.90;;;;;;5088763;28;20044;-69
2021/01/13 01:05:04;;;;;;;23.48;12.23;;;0.10;99.90;;;;;;5072307;28;20119;-68
2021/01/13 01:07:30;;;;;;;27.15;12.13;;;0.10;99.90;;;;;;5092194;28;20062;-67
2021/01/13 01:09:57;;;;;;;19.45;10.73;;;0.00;99.90;;;;;;5094189;28;20048;-68
2021/01/13 01:12:24;;;;;;;32.05;12.13;;;0.00;99.90;;;;;;5094496;28;20044;-68
2021/01/13 01:14:51;;;;;;;21.83;11.57;;;0.00;99.90;;;;;;5088748;28;20044;-68
2021/01/13 01:17:18;;;;;;;21.88;11.35;;;0.00;99.90;;;;;;5084643;28;20052;-68
2021/01/13 01:19:48;;;;;;;21.58;10.98;;;0.00;99.90;;;;;;5092655;28;20048;-68
2021/01/13 01:22:15;;;;;;;24.95;11.73;;;0.00;99.90;;;;;;5091231;28;20040;-68
2021/01/13 01:24:41;;;;;;;21.20;10.50;;;0.00;99.90;;;;;;5075718;28;20050;-68
2021/01/13 01:27:09;;;;;;;22.30;11.75;;;0.00;99.90;;;;;;5093438;28;20051;-68
2021/01/13 01:29:36;;;;;;;25.02;12.25;;;-0.10;99.90;;;;;;5092032;28;20048;-67
2021/01/13 01:32:02;;;;;;;23.90;11.88;;;-0.10;99.90;;;;;;5093243;28;20498;-68
2021/01/13 01:34:29;;;;;;;22.67;12.02;;;-0.10;99.90;;;;;;5092276;28;20044;-68
2021/01/13 01:36:56;;;;;;;25.88;12.20;;;-0.10;99.90;;;;;;5093471;28;20051;-68
2021/01/13 01:39:23;;;;;;;22.05;11.52;;;0.00;99.90;;;;;;5092612;28;20044;-69
2021/01/13 01:41:49;;;;;;;26.05;10.93;;;0.00;99.90;;;;;;5092435;28;20083;-68
2021/01/13 01:44:16;;;;;;;26.42;11.65;;;0.00;99.90;;;;;;5093128;28;20044;-68
2021/01/13 01:46:46;;;;;;;24.25;11.68;;;0.00;99.90;;;;;;5092289;28;20048;-67
2021/01/13 01:49:14;;;;;;;20.83;10.68;;;0.00;99.90;;;;;;5087840;28;20531;-68
2021/01/13 01:52:15;;;;;;;23.63;11.90;;;0.00;99.90;;;;;;5092429;28;20469;-68
2021/01/13 01:55:01;;;;;;;27.63;11.02;;;0.00;99.90;;;;;;5083637;28;20382;-68
2021/01/13 01:57:35;;;;;;;19.92;10.60;;;0.00;99.90;;;;;;5089308;28;20063;-66
2021/01/13 02:00:09;;;;;;;23.20;12.15;;;-0.10;99.90;;;;;;5091706;28;20054;-67
2021/01/13 02:02:51;;;;;;;26.83;11.25;;;-0.10;99.90;;;;;;5076625;28;20402;-67
2021/01/13 02:05:19;;;;;;;23.75;12.50;;;-0.10;99.90;;;;;;5092132;28;20044;-67
2021/01/13 02:07:49;;;;;;;28.33;12.63;;;-0.10;99.90;;;;;;5093391;28;20123;-66
2021/01/13 02:10:15;;;;;;;27.02;11.70;;;0.00;99.90;;;;;;5091652;28;20130;-67
2021/01/13 02:12:53;;;;;;;31.77;12.25;;;0.00;99.90;;;;;;5092455;28;20078;-67
2021/01/13 02:15:20;;;;;;;20.55;10.48;;;0.10;99.90;;;;;;5092659;28;20056;-67
2021/01/13 02:17:54;;;;;;;21.92;12.05;;;0.10;99.90;;;;;;5087011;28;20052;-67
2021/01/13 02:20:25;;;;;;;27.23;11.88;;;0.20;99.90;;;;;;5091836;28;20529;-66
2021/01/13 02:23:01;;;;;;;28.85;11.65;;;0.20;99.90;;;;;;5091490;28;20086;-65
2021/01/13 02:26:05;;;;;;;23.67;12.18;;;0.20;99.90;;;;;;5081109;28;20044;-66
2021/01/13 02:28:39;;;;;;;22.70;11.65;;;0.30;99.90;;;;;;5091683;28;20354;-65
2021/01/13 02:31:05;;;;;;;24.80;11.85;;;0.40;99.90;;;;;;5092064;28;20095;-66
2021/01/13 02:33:42;;;;;;;21.10;11.70;;;0.40;99.90;;;;;;5092634;28;20477;-67
2021/01/13 02:36:25;;;;;;;21.88;11.30;;;0.40;99.90;;;;;;5073718;28;20056;-66
2021/01/13 02:38:53;;;;;;;19.02;10.63;;;0.50;99.90;;;;;;5092938;28;20101;-67
2021/01/13 02:41:28;;;;;;;21.63;11.40;;;0.50;99.90;;;;;;5091847;28;20055;-66
2021/01/13 02:44:06;;;;;;;22.92;11.07;;;0.50;99.90;;;;;;5090714;28;20698;-67
2021/01/13 02:47:05;;;;;;;24.38;11.60;;;0.50;99.90;;;;;;5086049;28;20040;-67
2021/01/13 02:49:39;;;;;;;20.33;11.45;;;0.50;99.90;;;;;;5082990;28;20054;-66
2021/01/13 02:52:20;;;;;;;21.80;11.35;;;0.50;99.90;;;;;;5086056;28;20052;-67
2021/01/13 02:54:55;;;;;;;24.08;11.32;;;0.50;99.90;;;;;;5065877;28;20056;-68
2021/01/13 02:57:37;;;;;;;23.88;11.05;;;0.50;99.90;;;;;;5091966;28;20048;-65
2021/01/13 03:00:07;;;;;;;34.97;12.57;;;0.60;99.90;;;;;;5081574;28;20127;-68
2021/01/13 03:02:38;;;;;;;21.60;10.23;;;0.60;99.90;;;;;;5086851;28;20051;-68
2021/01/13 03:05:08;;;;;;;23.53;10.77;;;0.50;99.90;;;;;;5091248;28;20115;-67
2021/01/13 03:07:37;;;;;;;22.98;11.93;;;0.50;99.90;;;;;;5092216;28;20097;-68
2021/01/13 03:10:11;;;;;;;19.17;10.57;;;0.60;99.90;;;;;;5091487;28;20123;-67
2021/01/13 03:12:40;;;;;;;20.70;11.20;;;0.50;99.90;;;;;;5090469;28;20521;-68
2021/01/13 03:15:08;;;;;;;22.55;10.73;;;0.50;99.90;;;;;;5089980;28;20048;-68
2021/01/13 03:17:34;;;;;;;23.10;10.75;;;0.40;99.90;;;;;;5090612;28;20048;-68
2021/01/13 03:20:16;;;;;;;25.48;12.57;;;0.40;99.90;;;;;;5072949;28;20048;-67
2021/01/13 03:23:17;;;;;;;32.08;11.70;;;0.40;99.90;;;;;;5084539;28;20043;-68
2021/01/13 03:25:50;;;;;;;24.63;11.88;;;0.40;99.90;;;;;;5088840;28;20040;-68
2021/01/13 03:28:19;;;;;;;22.42;10.93;;;0.40;99.90;;;;;;5090986;28;20048;-67
2021/01/13 03:30:49;;;;;;;28.42;11.10;;;0.40;99.90;;;;;;5091343;28;20043;-67
2021/01/13 03:33:22;;;;;;;21.73;10.57;;;0.30;99.90;;;;;;5089659;28;20055;-69
2021/01/13 03:36:27;;;;;;;24.70;10.93;;;0.30;99.90;;;;;;5089540;28;20851;-67
2021/01/13 03:39:16;;;;;;;20.42;10.10;;;0.30;99.90;;;;;;5077409;28;20050;-68
2021/01/13 03:42:03;;;;;;;22.55;10.88;;;0.40;99.90;;;;;;5086935;28;20070;-68
2021/01/13 03:44:34;;;;;;;21.77;11.13;;;0.40;99.90;;;;;;5076748;28;20493;-68
2021/01/13 03:47:16;;;;;;;23.93;10.43;;;0.30;99.90;;;;;;5091371;28;20044;-68
2021/01/13 03:49:51;;;;;;;23.17;9.70;;;0.40;99.90;;;;;;5078357;28;20052;-68
2021/01/13 03:52:18;;;;;;;24.63;9.90;;;0.40;99.90;;;;;;5090423;28;20492;-68
2021/01/13 03:54:47;;;;;;;25.20;9.85;;;0.40;99.90;;;;;;5089445;28;20044;-68
2021/01/13 03:57:35;;;;;;;19.48;9.07;;;0.40;99.90;;;;;;5072950;28;20043;-67
2021/01/13 04:00:12;;;;;;;18.92;9.32;;;0.40;99.90;;;;;;5082190;28;20052;-68
2021/01/13 04:03:06;;;;;;;19.33;9.40;;;0.50;99.90;;;;;;5087669;28;20468;-68
2021/01/13 04:05:38;;;;;;;20.67;9.00;;;0.40;99.90;;;;;;5080691;28;20624;-68
2021/01/13 04:08:06;;;;;;;20.52;9.30;;;0.40;99.90;;;;;;5089875;28;20047;-69
2021/01/13 04:10:32;;;;;;;19.58;9.32;;;0.40;99.90;;;;;;5091027;28;20052;-68
2021/01/13 04:13:25;;;;;;;17.83;8.73;;;0.40;99.90;;;;;;5090730;28;20070;-68
2021/01/13 04:15:51;;;;;;;18.35;8.60;;;0.40;99.90;;;;;;5082326;28;20044;-69
2021/01/13 04:18:18;;;;;;;21.38;9.07;;;0.50;99.90;;;;;;5090857;28;20052;-67
2021/01/13 04:20:45;;;;;;;24.70;9.68;;;0.50;99.90;;;;;;5085206;28;20044;-68
2021/01/13 04:23:12;;;;;;;18.58;9.73;;;0.40;99.90;;;;;;5089878;28;20043;-68
2021/01/13 04:25:38;;;;;;;16.38;9.23;;;0.40;99.90;;;;;;5089646;28;20079;-69
2021/01/13 04:28:05;;;;;;;15.60;8.70;;;0.40;99.90;;;;;;5089671;28;20040;-67
2021/01/13 04:30:32;;;;;;;20.60;8.77;;;0.40;99.90;;;;;;5079768;28;20131;-67
2021/01/13 04:32:59;;;;;;;17.30;8.73;;;0.50;99.90;;;;;;5082700;28;20486;-68
2021/01/13 04:35:26;;;;;;;18.67;8.30;;;0.50;99.90;;;;;;5089172;28;20569;-69
2021/01/13 04:37:54;;;;;;;16.58;8.95;;;0.50;99.90;;;;;;5090656;28;20383;-68
2021/01/13 04:40:35;;;;;;;18.95;8.10;;;0.40;99.90;;;;;;5072609;28;20052;-68
2021/01/13 04:43:06;;;;;;;22.15;8.43;;;0.40;99.90;;;;;;5081564;28;20131;-67
2021/01/13 04:45:44;;;;;;;20.65;8.57;;;0.40;99.90;;;;;;5081727;28;20510;-68
2021/01/13 04:48:19;;;;;;;16.67;7.50;;;0.40;99.90;;;;;;5088563;28;20130;-67
2021/01/13 04:50:51;;;;;;;20.23;9.10;;;0.40;99.90;;;;;;5088886;28;20512;-67
2021/01/13 04:53:22;;;;;;;26.08;8.60;;;0.40;99.90;;;;;;5088601;28;20063;-68
2021/01/13 04:55:56;;;;;;;16.85;8.27;;;0.30;99.90;;;;;;5089324;28;20062;-68
2021/01/13 04:59:00;;;;;;;17.85;8.52;;;0.40;99.90;;;;;;5089247;28;20052;-66
2021/01/13 05:01:51;;;;;;;15.93;7.57;;;0.40;99.90;;;;;;5087513;28;20062;-68
2021/01/13 05:04:27;;;;;;;16.23;7.82;;;0.30;99.90;;;;;;5085233;28;20056;-69
2021/01/13 05:07:17;;;;;;;19.20;7.95;;;0.30;99.90;;;;;;5088607;28;20036;-67
2021/01/13 05:09:51;;;;;;;19.30;8.02;;;0.30;99.90;;;;;;5090146;28;20044;-67
2021/01/13 05:12:25;;;;;;;22.70;8.32;;;0.30;99.90;;;;;;5070801;28;20048;-67
2021/01/13 05:15:00;;;;;;;16.80;7.90;;;0.30;99.90;;;;;;5088693;28;20044;-68
2021/01/13 05:17:35;;;;;;;22.45;8.27;;;0.20;99.90;;;;;;5088315;28;20497;-67
2021/01/13 05:20:20;;;;;;;25.63;7.75;;;0.10;99.90;;;;;;5088979;28;20531;-69
2021/01/13 05:22:50;;;;;;;15.05;7.57;;;0.10;99.90;;;;;;5088524;28;20040;-66
2021/01/13 05:25:38;;;;;;;16.13;8.02;;;0.10;99.90;;;;;;5076265;28;20094;-67
2021/01/13 05:28:25;;;;;;;21.67;8.65;;;0.10;99.90;;;;;;5088375;28;20413;-67
2021/01/13 05:30:54;;;;;;;26.67;9.20;;;0.10;99.90;;;;;;5090167;28;20044;-67
2021/01/13 05:33:26;;;;;;;17.00;8.88;;;0.00;99.90;;;;;;5090307;28;20048;-67
2021/01/13 05:35:54;;;;;;;;;;;0.00;99.90;;;;;;5087268;28;20052;-67
2021/01/13 05:38:44;;;;;;;22.15;8.93;;;0.00;99.90;;;;;;5090493;28;20266;-67
2021/01/13 05:41:12;;;;;;;18.38;9.38;;;-0.20;99.90;;;;;;5089317;28;20048;-66
2021/01/13 05:43:46;;;;;;;19.80;8.85;;;-0.20;99.90;;;;;;5088329;28;20052;-67
2021/01/13 05:46:16;;;;;;;21.92;8.55;;;-0.20;99.90;;;;;;5081267;28;20043;-67
2021/01/13 05:48:47;;;;;;;23.38;8.18;;;-0.30;99.90;;;;;;5089189;28;20048;-66
2021/01/13 05:51:14;;;;;;;18.85;8.25;;;-0.40;99.90;;;;;;5089752;28;20083;-67
2021/01/13 05:53:51;;;;;;;17.58;9.45;;;-0.40;99.90;;;;;;5092094;28;20052;-66
2021/01/13 05:56:19;;;;;;;22.60;8.93;;;-0.50;99.90;;;;;;5078982;28;20062;-66
2021/01/13 05:58:46;;;;;;;21.23;9.25;;;-0.50;99.90;;;;;;5092702;28;20044;-67
2021/01/13 06:01:41;;;;;;;21.45;8.52;;;-0.50;99.90;;;;;;5080378;28;20493;-67
2021/01/13 06:04:09;;;;;;;22.48;8.63;;;-0.50;99.90;;;;;;5090608;28;20060;-67
2021/01/13 06:06:44;;;;;;;21.65;9.35;;;-0.40;99.90;;;;;;5092235;28;20062;-66
2021/01/13 06:09:12;;;;;;;17.15;8.10;;;-0.50;99.90;;;;;;5093032;28;20044;-67
2021/01/13 06:11:46;;;;;;;14.30;7.07;;;-0.50;99.90;;;;;;5092621;28;20044;-67
2021/01/13 06:14:27;;;;;;;24.90;8.57;;;-0.50;99.90;;;;;;5091938;28;20304;-67
2021/01/13 06:16:55;;;;;;;21.17;8.15;;;-0.50;99.90;;;;;;5085409;28;20127;-66
2021/01/13 06:19:22;;;;;;;17.80;8.65;;;-0.60;99.90;;;;;;5084963;28;20579;-67
2021/01/13 06:22:08;;;;;;;15.80;8.15;;;-0.50;99.90;;;;;;5069355;28;20052;-66
2021/01/13 06:24:35;;;;;;;19.35;7.65;;;-0.60;99.90;;;;;;5092559;28;20055;-68
2021/01/13 06:27:18;;;;;;;16.58;7.97;;;-0.50;99.90;;;;;;5090952;28;20048;-66
2021/01/13 06:29:53;;;;;;;14.73;7.90;;;-0.60;99.90;;;;;;5088978;28;20041;-67
2021/01/13 06:32:30;;;;;;;17.85;8.02;;;-0.60;99.90;;;;;;5074186;28;20043;-68
2021/01/13 06:35:21;;;;;;;18.90;9.05;;;-0.60;99.90;;;;;;5092817;28;20052;-68
2021/01/13 06:37:49;;;;;;;19.80;8.93;;;-0.70;99.90;;;;;;5093127;28;20189;-67
2021/01/13 06:40:20;;;;;;;22.13;8.38;;;-0.70;99.90;;;;;;5092633;28;20071;-66
2021/01/13 06:42:48;;;;;;;22.10;8.25;;;-0.70;99.90;;;;;;5065605;28;20101;-70
2021/01/13 06:45:30;;;;;;;18.80;8.98;;;-0.60;99.90;;;;;;5091919;28;20121;-68
2021/01/13 06:47:57;;;;;;;18.10;8.25;;;-0.70;99.90;;;;;;5091764;28;20059;-66
2021/01/13 06:50:34;;;;;;;15.13;7.05;;;-0.60;99.90;;;;;;5092713;28;20089;-70
2021/01/13 06:53:06;;;;;;;16.48;7.20;;;-0.50;99.90;;;;;;5079460;28;20043;-66
2021/01/13 06:55:34;;;;;;;20.35;6.38;;;-0.40;99.90;;;;;;5092529;28;20040;-69
2021/01/13 06:58:17;;;;;;;17.58;7.35;;;-0.30;99.90;;;;;;5091747;28;20044;-66
2021/01/13 07:00:45;;;;;;;19.25;7.30;;;-0.30;99.90;;;;;;5092758;28;20054;-69
2021/01/13 07:03:29;;;;;;;16.15;6.25;;;-0.20;99.90;;;;;;5091748;28;20054;-65
2021/01/13 07:05:59;;;;;;;13.45;6.47;;;-0.30;99.90;;;;;;5091724;28;20036;-69
2021/01/13 07:08:26;;;;;;;15.38;6.60;;;-0.20;99.90;;;;;;5092048;28;20128;-68
2021/01/13 07:11:02;;;;;;;12.85;6.00;;;-0.10;99.90;;;;;;5088316;28;20048;-66
2021/01/13 07:13:31;;;;;;;11.68;5.90;;;-0.10;99.90;;;;;;5088312;28;20047;-66
2021/01/13 07:16:00;;;;;;;15.18;6.28;;;-0.10;99.90;;;;;;5086856;28;20044;-65
2021/01/13 07:18:28;;;;;;;19.83;7.05;;;-0.20;99.90;;;;;;5093997;28;20459;-68
2021/01/13 07:20:55;;;;;;;14.05;6.82;;;-0.20;99.90;;;;;;5089361;28;20062;-68
2021/01/13 07:23:22;;;;;;;13.20;6.43;;;-0.30;99.90;;;;;;5090828;28;20047;-67
2021/01/13 07:25:50;;;;;;;14.57;7.03;;;-0.20;99.90;;;;;;5107083;28;20060;-67
2021/01/13 07:28:37;;;;;;;23.17;7.15;;;-0.20;99.90;;;;;;5090392;28;20486;-66
2021/01/13 07:31:05;;;;;;;15.57;7.18;;;-0.10;99.90;;;;;;5091448;28;20055;-66
2021/01/13 07:33:42;;;;;;;16.27;7.25;;;-0.20;99.90;;;;;;5092133;28;20071;-66
2021/01/13 07:36:17;;;;;;;19.40;7.07;;;-0.10;99.90;;;;;;5090069;28;20414;-66
2021/01/13 07:38:54;;;;;;;14.93;6.30;;;-0.10;99.90;;;;;;5091354;28;20044;-66
2021/01/13 07:41:58;;;;;;;13.80;7.35;;;0.00;99.90;;;;;;5081527;28;20048;-66
2021/01/13 07:44:44;;;;;;;15.52;7.25;;;0.10;99.90;;;;;;5090741;28;20044;-66
2021/01/13 07:47:27;;;;;;;15.15;7.57;;;0.10;99.90;;;;;;5090571;28;20058;-66
2021/01/13 07:50:09;;;;;;;19.60;7.60;;;0.10;99.90;;;;;;5091358;28;20079;-65
2021/01/13 07:52:42;;;;;;;18.77;8.17;;;0.20;99.90;;;;;;5072385;28;20486;-66
2021/01/13 07:55:18;;;;;;;15.93;7.53;;;0.20;99.90;;;;;;5091477;28;20052;-66
2021/01/13 07:57:56;;;;;;;18.48;7.10;;;0.20;99.90;;;;;;5073473;28;20050;-66
2021/01/13 08:00:46;;;;;;;22.33;7.50;;;0.20;99.90;;;;;;5091364;28;20571;-66
2021/01/13 08:03:25;;;;;;;21.08;8.25;;;0.20;99.90;;;;;;5089216;28;20504;-67
2021/01/13 08:06:24;;;;;;;17.27;7.60;;;0.30;99.90;;;;;;5090857;28;20036;-67
2021/01/13 08:09:13;;;;;;;17.75;8.18;;;0.30;99.90;;;;;;5063348;28;20044;-67
2021/01/13 08:11:48;;;;;;;15.93;8.52;;;0.30;99.90;;;;;;5076669;28;20504;-66
2021/01/13 08:14:52;;;;;;;22.10;9.63;;;0.30;99.90;;;;;;5090205;28;20417;-66
2021/01/13 08:17:31;;;;;;;22.98;9.07;;;0.30;99.90;;;;;;5096469;28;20146;-66
2021/01/13 08:20:37;;;;;;;21.27;10.02;;;0.30;99.90;;;;;;5089845;28;20128;-66
2021/01/13 08:23:24;;;;;;;21.00;9.75;;;0.30;99.90;;;;;;5089710;28;20177;-67
2021/01/13 08:25:56;;;;;;;22.63;9.68;;;0.30;99.90;;;;;;5081159;28;20055;-66
2021/01/13 08:28:23;;;;;;;21.92;10.02;;;0.20;99.90;;;;;;5089101;28;20058;-66
2021/01/13 08:30:51;;;;;;;21.20;10.45;;;0.30;99.90;;;;;;5089760;28;20161;-67
2021/01/13 08:33:25;;;;;;;19.90;10.05;;;0.30;99.90;;;;;;5090739;28;20054;-67
2021/01/13 08:35:58;;;;;;;21.38;10.63;;;0.30;99.90;;;;;;5089657;28;20044;-67
2021/01/13 08:38:26;;;;;;;25.60;11.77;;;0.30;99.90;;;;;;5089531;28;20095;-66
2021/01/13 08:40:54;;;;;;;23.48;10.70;;;0.40;99.90;;;;;;5089852;28;20039;-69
2021/01/13 08:43:24;;;;;;;21.10;11.07;;;0.50;99.90;;;;;;5089375;28;20051;-67
2021/01/13 08:45:52;;;;;;;20.42;10.88;;;0.60;99.90;;;;;;5090121;28;20044;-65
2021/01/13 08:48:23;;;;;;;26.95;10.90;;;0.60;99.90;;;;;;5090077;28;20474;-66
2021/01/13 08:51:08;;;;;;;19.98;10.75;;;0.70;99.90;;;;;;5088766;28;20146;-66
2021/01/13 08:53:35;;;;;;;23.30;11.35;;;0.70;99.90;;;;;;5071954;28;20059;-68
2021/01/13 08:56:02;;;;;;;23.67;10.57;;;0.80;99.90;;;;;;5089476;28;20055;-68
2021/01/13 08:58:33;;;;;;;27.60;11.18;;;0.90;99.90;;;;;;5090088;28;20505;-66
2021/01/13 09:01:08;;;;;;;23.63;10.70;;;1.00;99.90;;;;;;5086327;28;20083;-69
2021/01/13 09:03:41;;;;;;;17.27;9.15;;;1.10;99.90;;;;;;5070180;28;20048;-69
2021/01/13 09:06:33;;;;;;;;;;;1.30;99.90;;;;;;5088534;28;20047;-70
2021/01/13 09:09:10;;;;;;;18.75;8.23;;;1.40;99.90;;;;;;5069248;28;19930;-68
2021/01/13 09:11:38;;;;;;;17.70;9.10;;;1.40;99.90;;;;;;5090204;28;20040;-68
2021/01/13 09:14:19;;;;;;;20.88;8.70;;;1.40;99.90;;;;;;5090079;28;20056;-68
2021/01/13 09:16:52;;;;;;;17.05;8.23;;;1.50;99.90;;;;;;5081191;28;20051;-70
2021/01/13 09:19:37;;;;;;;17.48;7.30;;;1.70;99.90;;;;;;5089466;28;20459;-67
2021/01/13 09:22:07;;;;;;;13.60;6.88;;;1.80;99.90;;;;;;5089568;28;20052;-68
2021/01/13 09:24:43;;;;;;;15.48;7.35;;;1.90;99.90;;;;;;5087980;28;20054;-66
2021/01/13 09:27:11;;;;;;;14.90;7.55;;;1.90;99.90;;;;;;5089830;28;20410;-69
2021/01/13 09:29:56;;;;;;;14.35;7.03;;;2.00;99.90;;;;;;5090811;28;20130;-66
2021/01/13 09:32:23;;;;;;;21.38;7.57;;;1.90;99.90;;;;;;5063534;28;20126;-66
2021/01/13 09:34:53;;;;;;;26.00;8.25;;;1.90;99.90;;;;;;5091544;28;20052;-67
2021/01/13 09:37:21;;;;;;;17.77;7.65;;;1.90;99.90;;;;;;5096452;28;20059;-66
2021/01/13 09:39:59;;;;;;;15.23;7.25;;;2.00;99.90;;;;;;5093005;28;20070;-66
2021/01/13 09:42:41;;;;;;;17.02;7.03;;;2.00;99.90;;;;;;5093551;28;20040;-66
2021/01/13 09:45:09;;;;;;;15.88;7.82;;;2.00;99.90;;;;;;5093474;28;20055;-69
2021/01/13 09:47:37;;;;;;;14.07;6.95;;;1.90;99.90;;;;;;5091584;28;20040;-70
2021/01/13 09:50:06;;;;;;;20.65;7.18;;;1.80;99.90;;;;;;5093823;28;20083;-70
2021/01/13 09:52:44;;;;;;;12.45;6.93;;;1.80;99.90;;;;;;5087721;28;20501;-66
2021/01/13 09:55:13;;;;;;;15.00;7.25;;;2.00;99.90;;;;;;5108002;28;20521;-67
2021/01/13 09:57:39;;;;;;;16.00;7.47;;;2.30;99.90;;;;;;5091794;28;20486;-70
2021/01/13 10:00:08;;;;;;;11.88;7.57;;;2.50;99.90;;;;;;5092427;28;20074;-70
2021/01/13 10:02:35;;;;;;;14.60;6.55;;;2.60;99.90;;;;;;5089624;28;20040;-67
2021/01/13 10:05:02;;;;;;;15.13;6.97;;;2.70;99.90;;;;;;5090153;28;20048;-66
2021/01/13 10:07:31;;;;;;;17.23;7.03;;;2.60;99.90;;;;;;5093209;28;20501;-64
2021/01/13 10:09:59;;;;;;;14.98;6.65;;;2.50;99.90;;;;;;5101181;28;20123;-65
2021/01/13 10:12:40;;;;;;;13.30;6.90;;;2.40;99.90;;;;;;5085414;28;20051;-69
2021/01/13 10:15:12;;;;;;;14.50;6.68;;;2.40;99.90;;;;;;5089731;28;20491;-65
2021/01/13 10:17:41;;;;;;;17.67;6.47;;;2.40;99.90;;;;;;5093057;28;20415;-66
2021/01/13 10:20:17;;;;;;;14.32;6.78;;;2.40;99.90;;;;;;5074101;28;20422;-65
2021/01/13 10:22:46;;;;;;;13.93;6.85;;;2.50;99.90;;;;;;5092711;28;20102;-65
2021/01/13 10:25:27;;;;;;;12.48;6.30;;;2.50;99.90;;;;;;5091465;28;20055;-66
2021/01/13 10:27:54;;;;;;;11.18;6.72;;;2.60;99.90;;;;;;5092711;28;20638;-67
2021/01/13 10:30:22;;;;;;;14.32;6.60;;;2.80;99.90;;;;;;5084866;28;20048;-65
2021/01/13 10:32:54;;;;;;;13.55;7.35;;;2.90;99.90;;;;;;5074279;28;20448;-67
2021/01/13 10:35:24;;;;;;;12.77;7.05;;;3.00;99.90;;;;;;5069386;28;20451;-69
2021/01/13 10:37:55;;;;;;;14.52;7.25;;;3.10;99.90;;;;;;5083777;28;20074;-69
2021/01/13 10:40:24;;;;;;;18.25;6.80;;;3.00;99.90;;;;;;5091771;28;20417;-68
2021/01/13 10:42:52;;;;;;;16.38;7.38;;;2.80;99.90;;;;;;5092753;28;20569;-66
2021/01/13 10:45:20;;;;;;;13.18;6.68;;;2.90;99.90;;;;;;5089642;28;20510;-67
2021/01/13 10:48:00;;;;;;;12.38;7.55;;;2.90;99.90;;;;;;5092098;28;20514;-66
2021/01/13 10:50:30;;;;;;;12.93;6.20;;;2.80;99.90;;;;;;5089465;28;20044;-68
2021/01/13 10:52:58;;;;;;;9.73;5.70;;;2.80;99.90;;;;;;5090683;28;20046;-67
2021/01/13 10:55:27;;;;;;;11.60;6.38;;;2.70;99.90;;;;;;5091958;28;20048;-65
2021/01/13 10:57:55;;;;;;;15.00;6.25;;;2.60;99.90;;;;;;5092009;28;20048;-67
2021/01/13 11:00:27;;;;;;;13.55;5.88;;;2.70;99.90;;;;;;5085701;28;20490;-66
2021/01/13 11:02:57;;;;;;;15.43;6.05;;;2.90;99.90;;;;;;5090834;28;20052;-66
2021/01/13 11:05:25;;;;;;;10.55;5.38;;;3.40;99.90;;;;;;5090500;28;20446;-67
2021/01/13 11:07:54;;;;;;;9.77;5.78;;;3.50;99.90;;;;;;5091563;28;20058;-66
2021/01/13 11:10:22;;;;;;;14.27;5.68;;;3.70;99.90;;;;;;5091794;28;20101;-68
2021/01/13 11:13:02;;;;;;;15.68;6.50;;;4.30;99.90;;;;;;5091888;28;20079;-69
2021/01/13 11:15:29;;;;;;;10.32;5.88;;;4.80;99.90;;;;;;5087790;28;20143;-66
2021/01/13 11:17:57;;;;;;;9.80;5.32;;;6.40;99.90;;;;;;5090914;28;20048;-68
2021/01/13 11:20:32;;;;;;;10.45;5.68;;;6.70;99.90;;;;;;5085471;28;20048;-68
2021/01/13 11:23:02;;;;;;;11.32;6.10;;;6.10;99.90;;;;;;5091631;28;20441;-69
2021/01/13 11:25:34;;;;;;;11.82;5.82;;;5.60;99.90;;;;;;5091873;28;20067;-69
2021/01/13 11:28:03;;;;;;;9.18;5.45;;;6.20;99.90;;;;;;5090688;28;20075;-66
2021/01/13 11:30:31;;;;;;;12.45;5.60;;;6.90;99.90;;;;;;5090775;28;20047;-67
2021/01/13 11:33:03;;;;;;;10.98;6.10;;;7.70;99.90;;;;;;5082327;28;20040;-68
2021/01/13 11:35:32;;;;;;;12.33;5.77;;;7.10;99.90;;;;;;5090117;28;20048;-67
2021/01/13 11:38:01;;;;;;;9.32;5.65;;;6.00;99.90;;;;;;5090011;28;20290;-66
2021/01/13 11:40:48;;;;;;;15.48;5.45;;;5.50;99.90;;;;;;5085728;28;20052;-68
2021/01/13 11:43:46;;;;;;;12.48;5.65;;;4.50;99.90;;;;;;5080686;28;20075;-68
2021/01/13 11:46:17;;;;;;;11.52;5.60;;;4.30;99.90;;;;;;5088124;28;20127;-68
2021/01/13 11:48:44;;;;;;;10.95;5.40;;;4.30;99.90;;;;;;5076627;28;20044;-66
2021/01/13 11:51:16;;;;;;;11.25;5.30;;;5.00;99.90;;;;;;5089367;28;20059;-69
2021/01/13 11:53:45;;;;;;;10.50;5.85;;;6.30;99.90;;;;;;5085562;28;20040;-66
2021/01/13 11:56:12;;;;;;;10.77;6.43;;;6.80;99.90;;;;;;5091093;28;20525;-67
2021/01/13 11:58:46;;;;;;;13.90;5.60;;;6.10;99.90;;;;;;5102597;28;20474;-67
2021/01/13 12:01:12;;;;;;;9.32;5.20;;;5.70;99.90;;;;;;5090219;28;20461;-68
2021/01/13 12:03:40;;;;;;;8.20;5.25;;;5.10;99.90;;;;;;5090166;28;20387;-69
2021/01/13 12:06:07;;;;;;;10.40;5.47;;;5.40;99.90;;;;;;5091063;28;20044;-66
2021/01/13 12:08:34;;;;;;;9.68;5.97;;;5.90;99.90;;;;;;5090347;28;20054;-67
2021/01/13 12:11:10;;;;;;;10.50;5.05;;;5.90;99.90;;;;;;5090142;28;20048;-66
2021/01/13 12:13:44;;;;;;;10.15;5.05;;;7.00;99.90;;;;;;5084571;28;20048;-68
2021/01/13 12:16:19;;;;;;;9.05;5.15;;;7.60;99.90;;;;;;5090146;28;20055;-65
2021/01/13 12:18:50;;;;;;;11.48;4.85;;;7.50;99.90;;;;;;5089505;28;20040;-68
2021/01/13 12:21:27;;;;;;;6.75;4.72;;;7.80;99.90;;;;;;5089921;28;20084;-66
2021/01/13 12:23:55;;;;;;;9.75;5.70;;;8.10;99.90;;;;;;5088442;28;20129;-66
2021/01/13 12:26:35;;;;;;;15.43;5.15;;;7.20;99.90;;;;;;5090105;28;20562;-64
2021/01/13 12:29:01;;;;;;;9.43;5.53;;;7.40;99.90;;;;;;5095123;28;20493;-68
2021/01/13 12:31:35;;;;;;;8.73;5.15;;;7.50;99.90;;;;;;5086591;28;20525;-67
2021/01/13 12:34:03;;;;;;;13.32;5.45;;;7.50;99.90;;;;;;5089227;28;20051;-66
2021/01/13 12:36:37;;;;;;;7.82;4.95;;;7.00;99.90;;;;;;5088119;28;20051;-67
2021/01/13 12:39:05;;;;;;;13.80;5.90;;;7.00;99.90;;;;;;5072118;28;20040;-68
2021/01/13 12:41:37;;;;;;;11.15;5.70;;;6.70;99.90;;;;;;5087475;28;20052;-68
2021/01/13 12:44:08;;;;;;;11.20;5.73;;;6.40;99.90;;;;;;5090238;28;20044;-67
2021/01/13 12:46:38;;;;;;;11.30;5.80;;;6.50;99.90;;;;;;5069939;28;20294;-67
2021/01/13 12:49:05;;;;;;;14.05;5.90;;;5.80;99.90;;;;;;5090357;28;20043;-68
2021/01/13 12:51:31;;;;;;;9.75;6.03;;;5.10;99.90;;;;;;5088584;28;20044;-66
2021/01/13 12:53:59;;;;;;;11.20;5.60;;;4.40;99.90;;;;;;5055325;28;20089;-65
2021/01/13 12:56:28;;;;;;;9.55;5.82;;;4.10;99.90;;;;;;5089500;28;20047;-66
2021/01/13 12:58:57;;;;;;;14.77;6.28;;;4.20;99.90;;;;;;5089520;28;20044;-69
2021/01/13 13:01:24;;;;;;;11.52;5.85;;;4.20;99.90;;;;;;5087978;28;20054;-68
2021/01/13 13:03:51;;;;;;;14.68;6.05;;;4.10;99.90;;;;;;5093707;28;20508;-67
2021/01/13 13:06:29;;;;;;;17.05;7.43;;;3.80;99.90;;;;;;5093843;28;20408;-68
2021/01/13 13:08:57;;;;;;;13.90;6.45;;;3.50;99.90;;;;;;5094304;28;20046;-66
2021/01/13 13:11:24;;;;;;;10.88;6.38;;;3.30;99.90;;;;;;5075582;28;20518;-65
2021/01/13 13:13:52;;;;;;;12.65;6.15;;;3.20;99.90;;;;;;5093094;28;20556;-65